Saturday, November 17, 2018, 6:42 AM GMT
Back to Local

CYCX, Gagetown Can-Mil

Location: , , Canada Lat: 45.833
Local Time: 6:42 AM GMT ( 6:42 GMT) Lon: -66.433
Time Zone: GMT Elev: 167 ft

Show me the last for .
Show Coded

Time T Td Feel RH Dir Speed Gust Alt SLP Vis Weather Sky Remarks
2018-11-17 06:00 27 25 17 92 290° 10 - 29.55 29.56 1 -SN OVC008 None
2018-11-17 05:00 28 27 17 92 300° 14 - 29.52 29.52 1 -SN OVC006 None
2018-11-17 04:35 28 28 18 100 290° 12 - 29.50 29.51 0 -SN VV005 None
2018-11-17 04:00 28 28 18 100 300° 12 - 29.48 29.49 2 -SN SCT005 OVC017 None
2018-11-17 03:00 28 27 18 92 300° 13 - 29.47 29.48 4 -SN SCT008 OVC013 None
2018-11-17 02:00 28 28 20 100 320° 9 - 29.45 29.46 4 -SN OVC011 None
2018-11-17 01:00 28 28 20 100 350° 9 - 29.43 29.44 6 -SN OVC011 None
2018-11-17 00:00 30 27 17 86 20° 13 21 29.42 29.42 8 -SN OVC013 None
2018-11-16 23:18 28 27 14 92 30° 15 23 29.44 29.45 3 -SN OVC010 Pressure rising rapidly
2018-11-16 23:00 28 27 14 92 30° 16 24 29.42 29.43 1 -SN VV006 None
2018-11-16 22:23 28 27 16 92 20° 17 - 29.45 29.46 0 -SN VV004 None
2018-11-16 22:00 27 27 12 100 30° 16 22 29.45 29.46 0 SN VV004 None
2018-11-16 21:00 27 25 13 92 20° 12 20 29.50 29.51 0 SN VV004 None
2018-11-16 20:00 27 25 13 92 30° 12 18 29.52 29.52 0 SN VV004 None
2018-11-16 19:39 27 25 12 92 30° 13 22 29.52 29.53 0 SN VV004 None
2018-11-16 19:00 25 23 10 92 30° 16 22 29.54 29.56 0 -SNPL VV006 Pressure falling rapidly
2018-11-16 18:00 25 23 10 92 40° 13 22 29.60 29.62 0 -SNPL VV008 Pressure falling rapidly
2018-11-16 17:00 25 23 10 92 40° 13 21 29.67 29.68 2 -SN OVC008 Pressure falling rapidly
2018-11-16 16:00 25 21 11 85 50° 10 18 29.77 29.78 1 -SN VV008 Pressure falling rapidly
2018-11-16 15:41 23 21 12 92 50° 12 - 29.80 29.81 1 -SN VV008 Pressure falling rapidly
2018-11-16 15:00 23 21 12 92 50° 10 - 29.86 29.87 0 +SN VV002 Pressure falling rapidly
2018-11-16 14:00 23 21 15 92 60° 7 - 29.96 29.97 0 SN VV003 Pressure falling rapidly
2018-11-16 13:45 23 21 16 92 60° 6 - 29.98 29.99 0 SN VV005 Pressure falling rapidly
2018-11-16 13:00 25 19 17 79 60° 7 - 30.04 30.05 1 -SN BKN008 OVC030 None
2018-11-16 12:00 23 18 16 79 70° 6 - 30.09 30.10 12 -SN FEW015 OVC045 None
2018-11-16 11:00 23 18 16 79 60° 6 - 30.11 30.12 15 OVC070 None
2018-11-16 10:00 21 16 16 79 50° 3 - 30.16 30.17 15 SCT080 OVC240 None
2018-11-16 09:00 21 16 - 79 50° 2 - 30.20 30.21 15 SCT080 OVC240 Pressure falling rapidly
2018-11-16 08:00 19 14 14 79 70° 3 - 30.26 30.27 15 SCT080 OVC240 None
2018-11-16 07:00 19 14 - 79 50° 2 - 30.28 30.29 15 SCT080 OVC240 None

Support USWX by starting your Amazon purchase here.